sensor_id;sensor_type;location;lat;lon;timestamp;pressure;altitude;pressure_sealevel;temperature;humidity
58686;BME280;44465;53.206;-6.106;2023-01-01T00:01:07;99364.41;;;21.26;57.31
58686;BME280;44465;53.206;-6.106;2023-01-01T00:03:33;99415.53;;;21.57;57.10
58686;BME280;44465;53.206;-6.106;2023-01-01T00:06:04;99335.19;;;21.12;57.01
58686;BME280;44465;53.206;-6.106;2023-01-01T00:08:29;99360.50;;;21.19;56.93
58686;BME280;44465;53.206;-6.106;2023-01-01T00:11:01;99365.59;;;21.22;56.51
58686;BME280;44465;53.206;-6.106;2023-01-01T00:13:31;99421.00;;;21.56;57.00
58686;BME280;44465;53.206;-6.106;2023-01-01T00:16:10;99355.75;;;21.11;57.12
58686;BME280;44465;53.206;-6.106;2023-01-01T00:18:36;99431.84;;;21.54;56.78
58686;BME280;44465;53.206;-6.106;2023-01-01T00:21:06;99438.06;;;21.54;56.91
58686;BME280;44465;53.206;-6.106;2023-01-01T00:23:33;99430.63;;;21.47;57.04
58686;BME280;44465;53.206;-6.106;2023-01-01T00:25:59;99419.16;;;21.33;56.79
58686;BME280;44465;53.206;-6.106;2023-01-01T00:28:25;99421.13;;;21.31;57.05
58686;BME280;44465;53.206;-6.106;2023-01-01T00:30:50;99426.72;;;21.28;56.87
58686;BME280;44465;53.206;-6.106;2023-01-01T00:33:18;99422.69;;;21.22;57.01
58686;BME280;44465;53.206;-6.106;2023-01-01T00:36:09;99411.44;;;21.06;57.18
58686;BME280;44465;53.206;-6.106;2023-01-01T00:38:35;99469.00;;;21.47;57.03
58686;BME280;44465;53.206;-6.106;2023-01-01T00:41:01;99425.22;;;21.24;56.94
58686;BME280;44465;53.206;-6.106;2023-01-01T00:43:27;99478.59;;;21.50;57.07
58686;BME280;44465;53.206;-6.106;2023-01-01T00:45:52;99445.47;;;21.39;56.96
58686;BME280;44465;53.206;-6.106;2023-01-01T00:48:18;99445.69;;;21.36;57.11
58686;BME280;44465;53.206;-6.106;2023-01-01T00:50:46;99473.25;;;21.50;56.96
58686;BME280;44465;53.206;-6.106;2023-01-01T00:53:11;99469.56;;;21.39;57.22
58686;BME280;44465;53.206;-6.106;2023-01-01T00:55:39;99483.00;;;21.51;57.04
58686;BME280;44465;53.206;-6.106;2023-01-01T00:58:04;99409.63;;;21.06;56.90
58686;BME280;44465;53.206;-6.106;2023-01-01T01:00:30;99475.19;;;21.48;56.60
58686;BME280;44465;53.206;-6.106;2023-01-01T01:02:57;99483.09;;;21.49;56.75
58686;BME280;44465;53.206;-6.106;2023-01-01T01:05:22;99458.72;;;21.41;57.41
58686;BME280;44465;53.206;-6.106;2023-01-01T01:07:48;99482.72;;;21.43;57.07
58686;BME280;44465;53.206;-6.106;2023-01-01T01:10:14;99433.72;;;21.06;57.63
58686;BME280;44465;53.206;-6.106;2023-01-01T01:12:40;99435.44;;;21.07;57.20
58686;BME280;44465;53.206;-6.106;2023-01-01T01:15:06;99454.22;;;21.19;57.48
58686;BME280;44465;53.206;-6.106;2023-01-01T01:17:32;99497.72;;;21.45;57.96
58686;BME280;44465;53.206;-6.106;2023-01-01T01:19:58;99459.31;;;21.22;57.70
58686;BME280;44465;53.206;-6.106;2023-01-01T01:22:24;99506.59;;;21.57;57.51
58686;BME280;44465;53.206;-6.106;2023-01-01T01:24:52;99501.47;;;21.54;57.49
58686;BME280;44465;53.206;-6.106;2023-01-01T01:27:21;99504.28;;;21.52;57.31
58686;BME280;44465;53.206;-6.106;2023-01-01T01:29:46;99453.72;;;21.25;57.50
58686;BME280;44465;53.206;-6.106;2023-01-01T01:32:12;99504.28;;;21.52;57.81
58686;BME280;44465;53.206;-6.106;2023-01-01T01:34:37;99438.84;;;21.10;56.98
58686;BME280;44465;53.206;-6.106;2023-01-01T01:37:03;99507.53;;;21.45;57.61
58686;BME280;44465;53.206;-6.106;2023-01-01T01:39:29;99468.78;;;21.15;57.04
58686;BME280;44465;53.206;-6.106;2023-01-01T01:42:16;99523.63;;;21.45;56.96
58686;BME280;44465;53.206;-6.106;2023-01-01T01:47:34;99531.16;;;21.39;57.02
58686;BME280;44465;53.206;-6.106;2023-01-01T01:50:15;99509.19;;;21.23;56.88
58686;BME280;44465;53.206;-6.106;2023-01-01T01:53:12;99531.53;;;21.35;56.90
58686;BME280;44465;53.206;-6.106;2023-01-01T01:55:44;99537.22;;;21.30;56.58
58686;BME280;44465;53.206;-6.106;2023-01-01T01:58:13;99527.22;;;21.21;56.47
58686;BME280;44465;53.206;-6.106;2023-01-01T03:35:18;99595.41;;;20.80;55.56
58686;BME280;44465;53.206;-6.106;2023-01-01T03:37:49;99605.31;;;20.90;55.66
58686;BME280;44465;53.206;-6.106;2023-01-01T03:40:19;99600.63;;;20.81;55.71
58686;BME280;44465;53.206;-6.106;2023-01-01T03:42:50;99616.84;;;20.91;55.89
58686;BME280;44465;53.206;-6.106;2023-01-01T03:47:49;99618.81;;;20.89;55.56
58686;BME280;44465;53.206;-6.106;2023-01-01T03:50:21;99604.75;;;20.74;55.36
58686;BME280;44465;53.206;-6.106;2023-01-01T03:52:57;99611.97;;;20.85;55.35
58686;BME280;44465;53.206;-6.106;2023-01-01T03:55:49;99573.09;;;20.55;55.58
58686;BME280;44465;53.206;-6.106;2023-01-01T03:58:23;99615.81;;;20.81;55.13
58686;BME280;44465;53.206;-6.106;2023-01-01T04:01:01;99611.78;;;20.75;55.27
58686;BME280;44465;53.206;-6.106;2023-01-01T04:03:32;99601.09;;;20.62;55.35
58686;BME280;44465;53.206;-6.106;2023-01-01T04:06:05;99621.28;;;20.79;55.29
58686;BME280;44465;53.206;-6.106;2023-01-01T04:08:32;99616.28;;;20.74;55.37
58686;BME280;44465;53.206;-6.106;2023-01-01T04:11:00;99620.47;;;20.79;55.27
58686;BME280;44465;53.206;-6.106;2023-01-01T04:13:52;99598.19;;;20.65;55.41
58686;BME280;44465;53.206;-6.106;2023-01-01T04:16:17;99627.63;;;20.78;55.48
58686;BME280;44465;53.206;-6.106;2023-01-01T04:18:43;99633.84;;;20.79;55.38
58686;BME280;44465;53.206;-6.106;2023-01-01T04:21:08;99636.50;;;20.79;55.08
58686;BME280;44465;53.206;-6.106;2023-01-01T04:23:38;99619.72;;;20.64;55.29
58686;BME280;44465;53.206;-6.106;2023-01-01T04:26:03;99628.88;;;20.72;55.07
58686;BME280;44465;53.206;-6.106;2023-01-01T04:28:29;99632.97;;;20.65;55.23
58686;BME280;44465;53.206;-6.106;2023-01-01T04:30:54;99617.13;;;20.62;55.14
58686;BME280;44465;53.206;-6.106;2023-01-01T04:33:20;99637.88;;;20.71;55.32
58686;BME280;44465;53.206;-6.106;2023-01-01T04:35:46;99646.56;;;20.62;55.13
58686;BME280;44465;53.206;-6.106;2023-01-01T04:42:05;99628.50;;;20.53;55.06
58686;BME280;44465;53.206;-6.106;2023-01-01T04:44:30;99629.75;;;20.60;55.02
58686;BME280;44465;53.206;-6.106;2023-01-01T04:46:56;99641.13;;;20.64;55.18
58686;BME280;44465;53.206;-6.106;2023-01-01T04:49:22;99626.38;;;20.58;55.06
58686;BME280;44465;53.206;-6.106;2023-01-01T04:51:48;99662.06;;;20.70;55.13
58686;BME280;44465;53.206;-6.106;2023-01-01T04:54:13;99658.44;;;20.71;55.13
58686;BME280;44465;53.206;-6.106;2023-01-01T04:56:39;99599.31;;;20.37;54.80
58686;BME280;44465;53.206;-6.106;2023-01-01T04:59:04;99627.66;;;20.52;55.19
58686;BME280;44465;53.206;-6.106;2023-01-01T05:01:30;99650.81;;;20.65;55.06
58686;BME280;44465;53.206;-6.106;2023-01-01T05:03:56;99660.47;;;20.67;54.87
58686;BME280;44465;53.206;-6.106;2023-01-01T05:06:23;99655.53;;;20.61;55.22
58686;BME280;44465;53.206;-6.106;2023-01-01T05:08:52;99647.00;;;20.56;54.88
58686;BME280;44465;53.206;-6.106;2023-01-01T05:11:24;99674.91;;;20.65;54.69
58686;BME280;44465;53.206;-6.106;2023-01-01T05:13:52;99674.06;;;20.64;54.82
58686;BME280;44465;53.206;-6.106;2023-01-01T05:16:19;99673.00;;;20.54;55.12
58686;BME280;44465;53.206;-6.106;2023-01-01T05:18:45;99667.88;;;20.51;55.11
58686;BME280;44465;53.206;-6.106;2023-01-01T05:21:22;99673.00;;;20.54;54.92
58686;BME280;44465;53.206;-6.106;2023-01-01T05:23:53;99648.84;;;20.42;55.01
58686;BME280;44465;53.206;-6.106;2023-01-01T05:26:21;99684.97;;;20.61;54.79
58686;BME280;44465;53.206;-6.106;2023-01-01T05:28:47;99684.97;;;20.61;55.01
58686;BME280;44465;53.206;-6.106;2023-01-01T05:31:20;99659.13;;;20.49;54.96
58686;BME280;44465;53.206;-6.106;2023-01-01T05:33:46;99674.50;;;20.58;55.10
58686;BME280;44465;53.206;-6.106;2023-01-01T05:36:15;99671.59;;;20.61;54.80
58686;BME280;44465;53.206;-6.106;2023-01-01T05:38:41;99629.81;;;20.34;54.74
58686;BME280;44465;53.206;-6.106;2023-01-01T05:41:08;99666.16;;;20.63;54.84
58686;BME280;44465;53.206;-6.106;2023-01-01T05:43:35;99651.09;;;20.49;54.79
58686;BME280;44465;53.206;-6.106;2023-01-01T05:46:04;99645.09;;;20.45;54.96
58686;BME280;44465;53.206;-6.106;2023-01-01T05:48:30;99664.34;;;20.50;54.58
58686;BME280;44465;53.206;-6.106;2023-01-01T05:51:08;99657.19;;;20.38;54.86
58686;BME280;44465;53.206;-6.106;2023-01-01T05:53:34;99668.75;;;20.38;54.66
58686;BME280;44465;53.206;-6.106;2023-01-01T05:56:00;99689.25;;;20.51;54.78
58686;BME280;44465;53.206;-6.106;2023-01-01T05:58:27;99696.31;;;20.52;54.69
58686;BME280;44465;53.206;-6.106;2023-01-01T06:00:53;99685.31;;;20.43;54.57
58686;BME280;44465;53.206;-6.106;2023-01-01T06:03:31;99667.75;;;20.39;54.65
58686;BME280;44465;53.206;-6.106;2023-01-01T06:05:57;99680.16;;;20.40;54.78
58686;BME280;44465;53.206;-6.106;2023-01-01T06:08:23;99705.94;;;20.54;54.71
58686;BME280;44465;53.206;-6.106;2023-01-01T06:10:57;99690.88;;;20.40;54.77
58686;BME280;44465;53.206;-6.106;2023-01-01T06:13:22;99698.25;;;20.50;54.49
58686;BME280;44465;53.206;-6.106;2023-01-01T06:15:55;99717.63;;;20.53;54.75
58686;BME280;44465;53.206;-6.106;2023-01-01T06:18:21;99673.31;;;20.23;54.42
58686;BME280;44465;53.206;-6.106;2023-01-01T06:20:46;99690.16;;;20.38;54.59
58686;BME280;44465;53.206;-6.106;2023-01-01T06:23:12;99684.03;;;20.36;54.80
58686;BME280;44465;53.206;-6.106;2023-01-01T06:25:37;99695.50;;;20.38;54.78
58686;BME280;44465;53.206;-6.106;2023-01-01T06:28:03;99673.88;;;20.15;54.82
58686;BME280;44465;53.206;-6.106;2023-01-01T06:30:50;99742.75;;;20.51;54.53
58686;BME280;44465;53.206;-6.106;2023-01-01T06:33:16;99721.25;;;20.39;54.59
58686;BME280;44465;53.206;-6.106;2023-01-01T06:35:44;99719.66;;;20.37;54.48
58686;BME280;44465;53.206;-6.106;2023-01-01T06:38:10;99732.28;;;20.48;54.56
58686;BME280;44465;53.206;-6.106;2023-01-01T06:40:35;99720.53;;;20.37;54.47
58686;BME280;44465;53.206;-6.106;2023-01-01T06:43:04;99705.75;;;20.32;54.67
58686;BME280;44465;53.206;-6.106;2023-01-01T06:45:29;99727.56;;;20.51;54.38
58686;BME280;44465;53.206;-6.106;2023-01-01T06:48:01;99721.34;;;20.51;54.71
58686;BME280;44465;53.206;-6.106;2023-01-01T06:50:27;99717.94;;;20.49;54.75
58686;BME280;44465;53.206;-6.106;2023-01-01T06:52:52;99703.50;;;20.38;54.82
58686;BME280;44465;53.206;-6.106;2023-01-01T06:55:18;99699.75;;;20.41;54.64
58686;BME280;44465;53.206;-6.106;2023-01-01T06:57:43;99706.91;;;20.40;54.78
58686;BME280;44465;53.206;-6.106;2023-01-01T07:00:09;99725.97;;;20.49;54.69
58686;BME280;44465;53.206;-6.106;2023-01-01T07:02:35;99735.69;;;20.50;54.50
58686;BME280;44465;53.206;-6.106;2023-01-01T07:05:03;99708.19;;;20.35;54.49
58686;BME280;44465;53.206;-6.106;2023-01-01T07:07:29;99736.69;;;20.49;54.27
58686;BME280;44465;53.206;-6.106;2023-01-01T07:10:00;99730.97;;;20.40;54.53
58686;BME280;44465;53.206;-6.106;2023-01-01T07:12:26;99711.94;;;20.32;54.43
58686;BME280;44465;53.206;-6.106;2023-01-01T07:15:10;99727.13;;;20.44;54.54
58686;BME280;44465;53.206;-6.106;2023-01-01T07:17:51;99722.00;;;20.41;54.37
58686;BME280;44465;53.206;-6.106;2023-01-01T07:20:25;99723.19;;;20.37;54.56
58686;BME280;44465;53.206;-6.106;2023-01-01T07:22:51;99711.75;;;20.35;54.38
58686;BME280;44465;53.206;-6.106;2023-01-01T07:25:25;99697.19;;;20.26;54.46
58686;BME280;44465;53.206;-6.106;2023-01-01T07:27:54;99704.88;;;20.31;54.44
58686;BME280;44465;53.206;-6.106;2023-01-01T07:30:20;99731.41;;;20.47;54.46
58686;BME280;44465;53.206;-6.106;2023-01-01T07:32:54;99715.50;;;20.33;54.37
58686;BME280;44465;53.206;-6.106;2023-01-01T07:35:19;99718.88;;;20.35;54.56
58686;BME280;44465;53.206;-6.106;2023-01-01T07:38:11;99747.38;;;20.49;54.35
58686;BME280;44465;53.206;-6.106;2023-01-01T07:40:36;99719.00;;;20.33;54.42
58686;BME280;44465;53.206;-6.106;2023-01-01T07:43:02;99730.25;;;20.38;54.46
58686;BME280;44465;53.206;-6.106;2023-01-01T07:45:28;99736.75;;;20.34;54.21
58686;BME280;44465;53.206;-6.106;2023-01-01T07:47:55;99750.66;;;20.39;54.45
58686;BME280;44465;53.206;-6.106;2023-01-01T07:50:26;99720.28;;;20.14;54.41
58686;BME280;44465;53.206;-6.106;2023-01-01T07:52:55;99771.66;;;20.45;54.44
58686;BME280;44465;53.206;-6.106;2023-01-01T07:55:58;99776.22;;;20.43;54.29
58686;BME280;44465;53.206;-6.106;2023-01-01T07:58:23;99769.06;;;20.44;54.48
58686;BME280;44465;53.206;-6.106;2023-01-01T08:00:56;99762.34;;;20.38;54.51
58686;BME280;44465;53.206;-6.106;2023-01-01T08:03:22;99767.38;;;20.43;54.39
58686;BME280;44465;53.206;-6.106;2023-01-01T08:05:47;99763.63;;;20.45;54.43
58686;BME280;44465;53.206;-6.106;2023-01-01T08:08:13;99767.06;;;20.48;54.25
58686;BME280;44465;53.206;-6.106;2023-01-01T08:10:39;99773.25;;;20.48;54.42
58686;BME280;44465;53.206;-6.106;2023-01-01T08:13:06;99738.03;;;20.28;54.00
58686;BME280;44465;53.206;-6.106;2023-01-01T08:15:33;99755.91;;;20.41;54.17
58686;BME280;44465;53.206;-6.106;2023-01-01T08:18:01;99753.31;;;20.39;54.42
58686;BME280;44465;53.206;-6.106;2023-01-01T08:20:33;99752.59;;;20.37;54.41
58686;BME280;44465;53.206;-6.106;2023-01-01T08:23:13;99757.06;;;20.37;54.36
58686;BME280;44465;53.206;-6.106;2023-01-01T08:25:42;99748.75;;;20.41;54.29
58686;BME280;44465;53.206;-6.106;2023-01-01T08:28:17;99732.69;;;20.28;54.15
58686;BME280;44465;53.206;-6.106;2023-01-01T08:30:42;99732.06;;;20.25;54.15
58686;BME280;44465;53.206;-6.106;2023-01-01T08:33:08;99757.06;;;20.37;54.08
58686;BME280;44465;53.206;-6.106;2023-01-01T08:35:36;99715.47;;;20.20;53.66
58686;BME280;44465;53.206;-6.106;2023-01-01T08:38:04;99738.88;;;20.29;54.12
58686;BME280;44465;53.206;-6.106;2023-01-01T08:40:30;99758.69;;;20.39;54.25
58686;BME280;44465;53.206;-6.106;2023-01-01T08:42:55;99740.38;;;20.20;54.04
58686;BME280;44465;53.206;-6.106;2023-01-01T08:45:24;99778.38;;;20.38;53.96
58686;BME280;44465;53.206;-6.106;2023-01-01T08:47:49;99769.28;;;20.28;54.13
58686;BME280;44465;53.206;-6.106;2023-01-01T08:50:18;99789.59;;;20.43;54.25
58686;BME280;44465;53.206;-6.106;2023-01-01T08:52:46;99796.88;;;20.41;54.26
58686;BME280;44465;53.206;-6.106;2023-01-01T08:55:12;99797.94;;;20.39;54.03
58686;BME280;44465;53.206;-6.106;2023-01-01T08:57:37;99775.59;;;20.27;53.92
58686;BME280;44465;53.206;-6.106;2023-01-01T09:00:03;99801.38;;;20.41;53.99
58686;BME280;44465;53.206;-6.106;2023-01-01T09:02:30;99794.72;;;20.34;53.87
58686;BME280;44465;53.206;-6.106;2023-01-01T09:05:05;99798.16;;;20.36;53.84
58686;BME280;44465;53.206;-6.106;2023-01-01T09:07:31;99803.41;;;20.37;53.90
58686;BME280;44465;53.206;-6.106;2023-01-01T09:09:56;99787.00;;;20.29;53.94
58686;BME280;44465;53.206;-6.106;2023-01-01T09:12:22;99800.50;;;20.40;53.82
58686;BME280;44465;53.206;-6.106;2023-01-01T09:15:03;99777.50;;;20.25;54.21
58686;BME280;44465;53.206;-6.106;2023-01-01T09:17:38;99804.13;;;20.39;53.96
58686;BME280;44465;53.206;-6.106;2023-01-01T09:22:34;99788.72;;;20.30;53.91
58686;BME280;44465;53.206;-6.106;2023-01-01T09:25:00;99793.53;;;20.25;53.88
58686;BME280;44465;53.206;-6.106;2023-01-01T09:27:41;99801.38;;;20.28;54.03
58686;BME280;44465;53.206;-6.106;2023-01-01T09:30:07;99762.34;;;19.98;54.11
58686;BME280;44465;53.206;-6.106;2023-01-01T09:32:33;99819.09;;;20.29;53.70
58686;BME280;44465;53.206;-6.106;2023-01-01T09:34:58;99839.66;;;20.41;53.77
58686;BME280;44465;53.206;-6.106;2023-01-01T09:37:38;99799.50;;;20.15;53.97
58686;BME280;44465;53.206;-6.106;2023-01-01T09:40:04;99798.56;;;20.17;53.81
58686;BME280;44465;53.206;-6.106;2023-01-01T09:45:24;99829.13;;;20.25;53.71
58686;BME280;44465;53.206;-6.106;2023-01-01T09:47:57;99864.69;;;20.40;53.69
58686;BME280;44465;53.206;-6.106;2023-01-01T09:50:34;99871.97;;;20.38;53.96
58686;BME280;44465;53.206;-6.106;2023-01-01T09:55:56;99855.41;;;20.19;53.46
58686;BME280;44465;53.206;-6.106;2023-01-01T09:58:27;99889.69;;;20.39;53.66
58686;BME280;44465;53.206;-6.106;2023-01-01T10:07:08;99898.91;;;20.35;53.64
58686;BME280;44465;53.206;-6.106;2023-01-01T10:12:29;99918.16;;;20.40;53.62
58686;BME280;44465;53.206;-6.106;2023-01-01T10:15:51;99913.03;;;20.37;53.83
58686;BME280;44465;53.206;-6.106;2023-01-01T10:18:23;99908.41;;;20.39;53.78
58686;BME280;44465;53.206;-6.106;2023-01-01T10:21:11;99910.56;;;20.34;53.67
58686;BME280;44465;53.206;-6.106;2023-01-01T10:24:04;99918.38;;;20.37;53.88
58686;BME280;44465;53.206;-6.106;2023-01-01T10:26:45;99915.78;;;20.36;53.63
58686;BME280;44465;53.206;-6.106;2023-01-01T10:29:41;99919.22;;;20.38;53.65
58686;BME280;44465;53.206;-6.106;2023-01-01T10:35:02;99911.63;;;20.04;53.13
58686;BME280;44465;53.206;-6.106;2023-01-01T10:37:36;99905.53;;;19.88;52.81
58686;BME280;44465;53.206;-6.106;2023-01-01T10:40:28;99956.03;;;20.20;53.41
58686;BME280;44465;53.206;-6.106;2023-01-01T10:42:56;99951.63;;;20.33;53.25
58686;BME280;44465;53.206;-6.106;2023-01-01T10:45:52;99941.28;;;20.41;52.86
58686;BME280;44465;53.206;-6.106;2023-01-01T10:48:28;99957.97;;;20.45;53.14
58686;BME280;44465;53.206;-6.106;2023-01-01T10:51:16;99953.84;;;20.54;53.37
58686;BME280;44465;53.206;-6.106;2023-01-01T10:53:54;99935.22;;;20.52;53.52
58686;BME280;44465;53.206;-6.106;2023-01-01T10:56:38;99954.44;;;20.72;54.15
58686;BME280;44465;53.206;-6.106;2023-01-01T10:59:39;99967.81;;;20.72;54.30
58686;BME280;44465;53.206;-6.106;2023-01-01T11:02:24;99914.34;;;20.44;54.26
58686;BME280;44465;53.206;-6.106;2023-01-01T11:05:17;99977.81;;;20.83;54.21
58686;BME280;44465;53.206;-6.106;2023-01-01T11:07:43;99970.53;;;20.85;53.73
58686;BME280;44465;53.206;-6.106;2023-01-01T11:10:18;99982.91;;;21.00;53.44
58686;BME280;44465;53.206;-6.106;2023-01-01T11:12:45;99993.88;;;20.96;54.33
58686;BME280;44465;53.206;-6.106;2023-01-01T11:15:43;99988.84;;;20.91;54.14
58686;BME280;44465;53.206;-6.106;2023-01-01T11:18:15;99976.84;;;20.84;54.77
58686;BME280;44465;53.206;-6.106;2023-01-01T11:20:57;99997.50;;;20.82;54.63
58686;BME280;44465;53.206;-6.106;2023-01-01T11:23:38;99991.88;;;20.72;54.59
58686;BME280;44465;53.206;-6.106;2023-01-01T11:26:19;100011.63;;;20.84;55.19
58686;BME280;44465;53.206;-6.106;2023-01-01T11:29:28;100007.81;;;20.88;55.19
58686;BME280;44465;53.206;-6.106;2023-01-01T11:31:57;99976.69;;;20.72;55.33
58686;BME280;44465;53.206;-6.106;2023-01-01T11:37:19;99955.13;;;20.61;54.97
58686;BME280;44465;53.206;-6.106;2023-01-01T11:39:55;100005.88;;;20.90;54.91
58686;BME280;44465;53.206;-6.106;2023-01-01T11:42:27;99964.22;;;20.58;54.78
58686;BME280;44465;53.206;-6.106;2023-01-01T11:48:42;99977.19;;;20.65;54.94
58686;BME280;44465;53.206;-6.106;2023-01-01T11:51:09;99983.09;;;20.70;54.50
58686;BME280;44465;53.206;-6.106;2023-01-01T11:53:38;100010.16;;;20.80;54.54
58686;BME280;44465;53.206;-6.106;2023-01-01T11:56:37;100028.25;;;20.89;54.57
58686;BME280;44465;53.206;-6.106;2023-01-01T11:59:15;100022.16;;;20.87;54.51
58686;BME280;44465;53.206;-6.106;2023-01-01T12:01:58;100024.69;;;20.88;54.51
58686;BME280;44465;53.206;-6.106;2023-01-01T12:04:38;99967.41;;;20.51;54.42
58686;BME280;44465;53.206;-6.106;2023-01-01T12:07:14;99968.16;;;20.53;54.09
58686;BME280;44465;53.206;-6.106;2023-01-01T12:10:01;100023.22;;;20.84;54.42
58686;BME280;44465;53.206;-6.106;2023-01-01T12:13:14;100031.25;;;20.84;54.26
58686;BME280;44465;53.206;-6.106;2023-01-01T12:16:05;100004.16;;;20.61;54.39
58686;BME280;44465;53.206;-6.106;2023-01-01T12:18:44;100026.75;;;20.70;54.21
58686;BME280;44465;53.206;-6.106;2023-01-01T12:21:26;100024.84;;;20.72;54.18
58686;BME280;44465;53.206;-6.106;2023-01-01T12:23:53;100045.66;;;20.82;54.33
58686;BME280;44465;53.206;-6.106;2023-01-01T12:31:47;100047.38;;;20.83;54.24
58686;BME280;44465;53.206;-6.106;2023-01-01T12:34:24;100047.38;;;20.83;54.25
58686;BME280;44465;53.206;-6.106;2023-01-01T12:37:09;100053.59;;;20.83;53.67
58686;BME280;44465;53.206;-6.106;2023-01-01T12:50:48;100035.72;;;20.84;54.06
58686;BME280;44465;53.206;-6.106;2023-01-01T12:59:04;100059.91;;;20.82;54.34
58686;BME280;44465;53.206;-6.106;2023-01-01T13:01:34;100042.78;;;20.70;54.73
58686;BME280;44465;53.206;-6.106;2023-01-01T13:04:11;100034.88;;;20.69;54.60
58686;BME280;44465;53.206;-6.106;2023-01-01T13:06:39;100078.19;;;20.75;54.86
58686;BME280;44465;53.206;-6.106;2023-01-01T13:09:16;100071.13;;;20.74;54.70
58686;BME280;44465;53.206;-6.106;2023-01-01T13:11:44;100078.00;;;20.79;54.41
58686;BME280;44465;53.206;-6.106;2023-01-01T13:14:11;100040.38;;;20.53;54.24
58686;BME280;44465;53.206;-6.106;2023-01-01T13:16:38;100090.84;;;20.86;54.46
58686;BME280;44465;53.206;-6.106;2023-01-01T13:19:10;100013.13;;;20.33;54.34
58686;BME280;44465;53.206;-6.106;2023-01-01T13:21:47;100073.41;;;20.66;54.19
58686;BME280;44465;53.206;-6.106;2023-01-01T13:24:22;100057.97;;;20.57;54.12
58686;BME280;44465;53.206;-6.106;2023-01-01T13:26:48;100109.88;;;20.82;54.37
58686;BME280;44465;53.206;-6.106;2023-01-01T13:34:30;100116.75;;;20.86;54.17
58686;BME280;44465;53.206;-6.106;2023-01-01T13:40:02;100119.56;;;20.84;54.47
58686;BME280;44465;53.206;-6.106;2023-01-01T13:42:46;100098.72;;;20.75;54.61
58686;BME280;44465;53.206;-6.106;2023-01-01T13:45:31;100104.94;;;20.75;54.47
58686;BME280;44465;53.206;-6.106;2023-01-01T13:56:55;100105.31;;;20.69;54.38
58686;BME280;44465;53.206;-6.106;2023-01-01T14:03:02;100137.53;;;20.82;54.56
58686;BME280;44465;53.206;-6.106;2023-01-01T14:05:38;100141.03;;;20.83;54.55
58686;BME280;44465;53.206;-6.106;2023-01-01T14:08:05;100157.88;;;20.85;54.25
58686;BME280;44465;53.206;-6.106;2023-01-01T14:10:50;100094.47;;;20.43;54.51
58686;BME280;44465;53.206;-6.106;2023-01-01T14:13:16;100141.06;;;20.68;54.59
58686;BME280;44465;53.206;-6.106;2023-01-01T14:16:02;100148.22;;;20.68;54.33
58686;BME280;44465;53.206;-6.106;2023-01-01T14:18:46;100165.13;;;20.83;54.50
58686;BME280;44465;53.206;-6.106;2023-01-01T14:21:18;100085.97;;;20.37;54.60
58686;BME280;44465;53.206;-6.106;2023-01-01T14:24:02;100160.00;;;20.80;54.38
58686;BME280;44465;53.206;-6.106;2023-01-01T14:26:30;100116.88;;;20.55;54.40
58686;BME280;44465;53.206;-6.106;2023-01-01T14:29:01;100162.56;;;20.81;54.34
58686;BME280;44465;53.206;-6.106;2023-01-01T14:31:34;100166.84;;;20.84;54.25
58686;BME280;44465;53.206;-6.106;2023-01-01T14:34:28;100131.38;;;20.66;54.52
58686;BME280;44465;53.206;-6.106;2023-01-01T14:36:56;100147.56;;;20.79;54.41
58686;BME280;44465;53.206;-6.106;2023-01-01T14:39:27;100127.97;;;20.64;54.21
58686;BME280;44465;53.206;-6.106;2023-01-01T14:41:56;100157.88;;;20.85;54.29
58686;BME280;44465;53.206;-6.106;2023-01-01T14:44:49;100165.03;;;20.84;54.38
58686;BME280;44465;53.206;-6.106;2023-01-01T14:47:25;100160.66;;;20.83;54.22
58686;BME280;44465;53.206;-6.106;2023-01-01T14:49:52;100141.91;;;20.69;54.36
58686;BME280;44465;53.206;-6.106;2023-01-01T14:52:25;100152.81;;;20.80;54.33
58686;BME280;44465;53.206;-6.106;2023-01-01T14:54:52;100146.59;;;20.80;54.27
58686;BME280;44465;53.206;-6.106;2023-01-01T14:57:28;100120.44;;;20.56;54.34
58686;BME280;44465;53.206;-6.106;2023-01-01T14:59:54;100092.75;;;20.42;54.38
58686;BME280;44465;53.206;-6.106;2023-01-01T15:02:29;100154.81;;;20.76;54.22
58686;BME280;44465;53.206;-6.106;2023-01-01T15:04:56;100166.19;;;20.80;54.28
58686;BME280;44465;53.206;-6.106;2023-01-01T15:07:30;100132.44;;;20.63;54.42
58686;BME280;44465;53.206;-6.106;2023-01-01T15:09:57;100132.63;;;20.60;54.34
58686;BME280;44465;53.206;-6.106;2023-01-01T15:12:32;100113.97;;;20.45;54.37
58686;BME280;44465;53.206;-6.106;2023-01-01T15:14:59;100162.84;;;20.76;54.33
58686;BME280;44465;53.206;-6.106;2023-01-01T15:17:26;100150.03;;;20.67;54.25
58686;BME280;44465;53.206;-6.106;2023-01-01T15:20:01;100145.16;;;20.59;54.12
58686;BME280;44465;53.206;-6.106;2023-01-01T15:22:30;100158.63;;;20.72;54.09
58686;BME280;44465;53.206;-6.106;2023-01-01T15:24:58;100177.56;;;20.84;54.28
58686;BME280;44465;53.206;-6.106;2023-01-01T15:27:27;100177.56;;;20.84;54.33
58686;BME280;44465;53.206;-6.106;2023-01-01T15:29:54;100176.88;;;20.80;54.32
58686;BME280;44465;53.206;-6.106;2023-01-01T15:32:27;100187.28;;;20.85;54.32
58686;BME280;44465;53.206;-6.106;2023-01-01T15:35:05;100177.19;;;20.75;54.15
58686;BME280;44465;53.206;-6.106;2023-01-01T15:37:41;100193.41;;;20.72;54.41
58686;BME280;44465;53.206;-6.106;2023-01-01T15:42:45;100201.09;;;20.79;54.79
58686;BME280;44465;53.206;-6.106;2023-01-01T15:47:49;100188.03;;;20.72;54.43
58686;BME280;44465;53.206;-6.106;2023-01-01T15:50:28;100197.44;;;20.80;54.72
58686;BME280;44465;53.206;-6.106;2023-01-01T15:52:58;100161.50;;;20.55;54.81
58686;BME280;44465;53.206;-6.106;2023-01-01T15:55:26;100197.44;;;20.80;54.92
58686;BME280;44465;53.206;-6.106;2023-01-01T15:57:53;100152.72;;;20.53;54.69
58686;BME280;44465;53.206;-6.106;2023-01-01T16:00:26;100196.38;;;20.82;54.69
58686;BME280;44465;53.206;-6.106;2023-01-01T16:02:59;100169.78;;;20.65;54.70
58686;BME280;44465;53.206;-6.106;2023-01-01T16:05:35;100175.91;;;20.67;54.98
58686;BME280;44465;53.206;-6.106;2023-01-01T16:08:04;100178.69;;;20.65;54.64
58686;BME280;44465;53.206;-6.106;2023-01-01T16:10:31;100180.97;;;20.71;54.76